Time;durP1;ratioP1;P1;durP2;ratioP2;P2;SDS_P1;SDS_P2;PMS_P1;PMS_P2;Temp;Humidity;BMP_temperature;BMP_pressure;BME280_temperature;BME280_humidity;BME280_pressure;Samples;Min_cycle;Max_cycle;Signal;HPM_P1;HPM_P2
2023/01/25 00:01:47;;;;;;;3.90;3.60;;;16.20;56.90;17.10;102801.00;;;;5031101;28;20185;-47
2023/01/25 00:04:13;;;;;;;4.00;3.70;;;16.20;56.90;17.10;102798.00;;;;5032034;28;20171;-47
2023/01/25 00:06:38;;;;;;;3.63;3.40;;;16.20;56.90;17.10;102795.00;;;;5032256;28;20247;-47
2023/01/25 00:09:04;;;;;;;4.17;3.87;;;16.20;57.20;17.10;102795.00;;;;5030441;28;20188;-49
2023/01/25 00:11:30;;;;;;;3.90;3.60;;;16.20;56.90;17.10;102787.00;;;;5035902;28;20582;-47
2023/01/25 00:13:56;;;;;;;4.03;3.73;;;16.10;57.40;17.00;102783.00;;;;5037497;28;20265;-47
2023/01/25 00:16:22;;;;;;;4.07;3.77;;;16.20;56.90;17.00;102783.00;;;;5031141;28;20207;-47
2023/01/25 00:18:48;;;;;;;4.07;3.77;;;16.10;56.80;17.00;102778.00;;;;5031351;28;20260;-48
2023/01/25 00:21:17;;;;;;;4.40;4.10;;;16.20;56.90;17.00;102780.00;;;;5029319;28;20188;-50
2023/01/25 00:23:42;;;;;;;3.97;3.67;;;16.10;56.90;17.00;102775.00;;;;5031150;28;20172;-47
2023/01/25 00:26:08;;;;;;;3.90;3.60;;;16.10;56.80;17.00;102775.00;;;;5031174;28;20202;-47
2023/01/25 00:28:35;;;;;;;3.70;3.40;;;16.10;56.80;17.00;102777.00;;;;5031445;28;20649;-47
2023/01/25 00:31:20;;;;;;;4.00;3.70;;;16.10;56.90;16.90;102774.00;;;;5031045;28;20222;-48
2023/01/25 00:33:59;;;;;;;3.60;3.40;;;16.10;56.90;16.90;102769.00;;;;5031242;28;20530;-46
2023/01/25 00:36:37;;;;;;;3.90;3.60;;;16.10;56.90;16.90;102766.00;;;;5029227;28;20237;-47
2023/01/25 00:39:04;;;;;;;3.90;3.60;;;16.00;56.80;16.90;102769.00;;;;5031276;28;20194;-47
2023/01/25 00:41:30;;;;;;;4.10;3.80;;;16.00;56.80;16.90;102760.00;;;;5030423;28;20171;-47
2023/01/25 00:43:56;;;;;;;4.30;4.00;;;16.00;56.80;16.90;102760.00;;;;5031119;28;20171;-47
2023/01/25 00:46:21;;;;;;;3.90;3.60;;;16.00;56.80;16.80;102755.00;;;;5030631;28;20552;-47
2023/01/25 00:48:47;;;;;;;4.10;3.80;;;16.00;56.80;16.80;102759.00;;;;5030941;28;20225;-47
2023/01/25 00:51:14;;;;;;;3.97;3.67;;;16.00;56.80;16.80;102754.00;;;;5036707;28;20241;-48
2023/01/25 00:53:40;;;;;;;4.03;3.73;;;16.00;56.80;16.80;102749.00;;;;5042479;28;20220;-47
2023/01/25 00:56:06;;;;;;;4.20;3.90;;;15.90;56.70;16.80;102750.00;;;;5031219;28;20203;-47
2023/01/25 00:58:32;;;;;;;4.23;3.93;;;15.90;56.70;16.80;102742.00;;;;5030791;28;20262;-47
2023/01/25 01:00:57;;;;;;;4.10;3.80;;;15.90;56.70;16.80;102747.00;;;;5029224;28;20251;-47
2023/01/25 01:03:23;;;;;;;4.00;3.70;;;15.90;56.70;16.80;102745.00;;;;5030534;28;20258;-47
2023/01/25 01:06:29;;;;;;;4.10;3.80;;;15.90;56.70;16.70;102743.00;;;;5030571;28;20241;-47
2023/01/25 01:08:54;;;;;;;3.97;3.67;;;15.90;56.80;16.70;102748.00;;;;5030966;28;20202;-49
2023/01/25 01:11:20;;;;;;;4.03;3.73;;;15.80;56.70;16.70;102740.00;;;;5030222;28;20178;-48
2023/01/25 01:13:46;;;;;;;3.67;3.37;;;15.80;56.70;16.70;102745.00;;;;5030581;28;20194;-47
2023/01/25 01:16:12;;;;;;;4.20;3.90;;;15.80;56.70;16.70;102739.00;;;;5030206;28;20222;-47
2023/01/25 01:18:43;;;;;;;4.03;3.73;;;15.80;56.70;16.70;102745.00;;;;5030107;28;20565;-47
2023/01/25 01:21:09;;;;;;;4.13;3.83;;;15.80;56.80;16.70;102741.00;;;;5030353;28;20644;-47
2023/01/25 01:23:35;;;;;;;4.10;3.80;;;15.80;56.70;16.70;102740.00;;;;5034393;28;20167;-47
2023/01/25 01:26:06;;;;;;;4.10;3.80;;;15.80;56.80;16.60;102739.00;;;;5036746;28;20210;-48
2023/01/25 01:28:32;;;;;;;3.90;3.60;;;15.80;56.80;16.60;102742.00;;;;5030440;28;20212;-48
2023/01/25 01:31:01;;;;;;;4.33;4.00;;;15.80;56.80;16.60;102735.00;;;;5030210;28;20179;-48
2023/01/25 01:33:27;;;;;;;4.10;3.80;;;15.80;56.80;16.60;102744.00;;;;5028858;28;20179;-47
2023/01/25 01:35:53;;;;;;;4.00;3.70;;;15.80;56.80;16.60;102741.00;;;;5030380;28;20513;-48
2023/01/25 01:38:19;;;;;;;4.10;3.80;;;15.70;56.70;16.60;102759.00;;;;5039498;28;20174;-47
2023/01/25 01:40:45;;;;;;;4.40;4.10;;;15.70;57.40;16.60;102745.00;;;;5040453;28;20660;-48
2023/01/25 01:43:31;;;;;;;4.27;3.97;;;15.70;56.70;16.50;102738.00;;;;5037693;28;20678;-48
2023/01/25 01:46:02;;;;;;;4.30;4.00;;;15.70;56.70;16.50;102737.00;;;;5030640;28;20537;-48
2023/01/25 01:48:37;;;;;;;4.00;3.70;;;15.70;56.70;16.50;102739.00;;;;5029971;28;20564;-49
2023/01/25 01:51:15;;;;;;;4.17;3.87;;;15.60;56.70;16.50;102742.00;;;;5029850;28;20163;-47
2023/01/25 01:53:44;;;;;;;4.00;3.70;;;15.60;56.70;16.50;102740.00;;;;5028184;28;20583;-52
2023/01/25 01:56:12;;;;;;;4.23;3.93;;;15.60;56.70;16.50;102756.00;;;;5028508;28;20264;-47
2023/01/25 01:58:37;;;;;;;4.23;3.93;;;15.60;56.70;16.50;102742.00;;;;5028449;28;20198;-48
2023/01/25 02:01:03;;;;;;;4.20;3.90;;;15.60;56.70;16.40;102740.00;;;;5028482;28;20175;-47
2023/01/25 02:03:29;;;;;;;4.20;3.90;;;15.60;56.90;16.40;102742.00;;;;5029044;28;20178;-47
2023/01/25 02:06:13;;;;;;;4.10;3.80;;;15.50;57.50;16.40;102730.00;;;;5029858;28;20203;-47
2023/01/25 02:08:39;;;;;;;4.10;3.80;;;15.60;56.90;16.40;102733.00;;;;5028515;28;20199;-53
2023/01/25 02:11:06;;;;;;;4.30;4.00;;;15.50;56.90;16.40;102696.00;;;;5030160;28;20179;-48
2023/01/25 02:13:31;;;;;;;4.50;4.10;;;15.50;56.80;16.40;102733.00;;;;5027384;28;20595;-47
2023/01/25 02:15:57;;;;;;;4.40;4.10;;;15.50;56.80;16.40;102710.00;;;;5028341;28;20202;-48
2023/01/25 02:18:23;;;;;;;4.20;3.90;;;15.50;56.90;16.30;102734.00;;;;5027854;28;20241;-47
2023/01/25 02:20:54;;;;;;;4.60;4.20;;;15.50;56.80;16.30;102731.00;;;;5027839;28;20237;-47
2023/01/25 02:23:33;;;;;;;4.43;4.13;;;15.40;56.80;16.30;102736.00;;;;5027765;28;20542;-47
2023/01/25 02:26:01;;;;;;;4.13;3.83;;;15.50;56.90;16.30;102732.00;;;;5027951;28;20167;-46
2023/01/25 02:28:50;;;;;;;4.20;3.80;;;15.40;56.80;16.30;102728.00;;;;5027585;28;20277;-47
2023/01/25 02:31:16;;;;;;;4.10;3.80;;;15.40;56.80;16.30;102729.00;;;;5028769;28;20163;-47
2023/01/25 02:33:42;;;;;;;4.50;4.20;;;15.40;57.70;16.30;102723.00;;;;5029563;28;20171;-47
2023/01/25 02:36:07;;;;;;;4.47;4.07;;;15.30;57.50;16.30;102715.00;;;;5033836;28;20199;-47
2023/01/25 02:38:36;;;;;;;4.07;3.67;;;15.30;57.60;16.30;102714.00;;;;5036274;28;20182;-47
2023/01/25 02:41:27;;;;;;;4.60;4.27;;;15.30;57.60;16.20;102718.00;;;;5027909;28;20171;-47
2023/01/25 02:43:53;;;;;;;4.07;3.77;;;15.20;57.70;16.20;102707.00;;;;5027517;28;20182;-48
2023/01/25 02:46:27;;;;;;;4.40;4.10;;;15.20;57.70;16.20;102702.00;;;;5028843;28;20179;-48
2023/01/25 02:48:57;;;;;;;4.20;3.90;;;15.20;57.70;16.20;102709.00;;;;5027508;28;20206;-47
2023/01/25 02:51:25;;;;;;;4.87;4.47;;;15.20;57.70;16.20;102685.00;;;;5028626;28;20190;-47
2023/01/25 02:53:50;;;;;;;4.37;4.07;;;15.20;57.70;16.20;102705.00;;;;5027752;28;20253;-47
2023/01/25 02:56:16;;;;;;;4.80;4.30;;;15.20;57.70;16.20;102707.00;;;;5028746;28;20857;-48
2023/01/25 02:58:42;;;;;;;4.37;3.97;;;15.10;57.70;16.20;102711.00;;;;5027421;28;20556;-47
2023/01/25 03:01:08;;;;;;;4.30;4.00;;;15.10;57.60;16.10;102705.00;;;;5029205;28;20246;-47
2023/01/25 03:03:34;;;;;;;4.80;4.40;;;15.10;57.60;16.10;102702.00;;;;5029137;28;20163;-47
2023/01/25 03:06:00;;;;;;;4.20;3.90;;;15.10;57.60;16.10;102702.00;;;;5028559;28;20178;-47
2023/01/25 03:08:26;;;;;;;4.40;4.00;;;15.10;57.60;16.10;102698.00;;;;5028735;28;20194;-48
2023/01/25 03:10:56;;;;;;;4.17;3.87;;;15.10;57.60;16.10;102703.00;;;;5028764;28;20539;-48
2023/01/25 03:13:23;;;;;;;4.43;4.03;;;15.10;57.50;16.10;102705.00;;;;5028451;28;20171;-47
2023/01/25 03:15:48;;;;;;;4.10;3.80;;;15.20;57.30;16.10;102698.00;;;;5028286;28;20195;-48
2023/01/25 03:18:14;;;;;;;4.50;4.20;;;15.20;57.20;16.10;102702.00;;;;5028542;28;20167;-48
2023/01/25 03:20:40;;;;;;;4.10;3.80;;;15.10;57.00;16.10;102697.00;;;;5028352;28;20672;-48
2023/01/25 03:23:05;;;;;;;4.53;4.13;;;15.10;57.00;16.10;102701.00;;;;5032690;28;20175;-47
2023/01/25 03:25:31;;;;;;;4.47;4.07;;;15.10;57.00;16.00;102701.00;;;;5028993;28;20182;-48
2023/01/25 03:27:57;;;;;;;4.60;3.90;;;15.10;57.00;16.00;102699.00;;;;5028353;28;20179;-48
2023/01/25 03:30:23;;;;;;;4.40;4.07;;;15.10;56.90;16.00;102704.00;;;;5028563;28;20194;-48
2023/01/25 03:32:49;;;;;;;4.13;3.73;;;15.10;57.00;16.00;102704.00;;;;5038080;28;20549;-48
2023/01/25 03:35:15;;;;;;;4.50;4.20;;;15.10;57.00;16.00;102710.00;;;;5042158;28;20209;-48
2023/01/25 03:37:41;;;;;;;4.40;4.10;;;15.10;56.90;16.00;102710.00;;;;5029059;28;20171;-48
2023/01/25 03:40:08;;;;;;;4.17;3.87;;;15.10;56.90;16.00;102716.00;;;;5028127;28;20286;-48
2023/01/25 03:42:33;;;;;;;4.40;4.10;;;15.10;56.90;16.00;102700.00;;;;5028848;28;20179;-48
2023/01/25 03:44:59;;;;;;;4.50;4.10;;;15.10;56.90;16.00;102701.00;;;;5028730;28;20171;-52
2023/01/25 03:47:25;;;;;;;4.60;4.23;;;15.10;56.90;15.90;102701.00;;;;5031141;28;20178;-48
2023/01/25 03:49:50;;;;;;;4.27;3.87;;;15.10;56.80;15.90;102695.00;;;;5035447;28;20202;-50
2023/01/25 03:52:16;;;;;;;4.43;4.13;;;15.00;56.70;15.90;102697.00;;;;5029689;28;20171;-48
2023/01/25 03:54:42;;;;;;;4.37;4.07;;;15.00;56.70;15.90;102700.00;;;;5031115;28;20203;-47
2023/01/25 03:57:08;;;;;;;4.20;3.90;;;15.00;56.80;15.90;102684.00;;;;5032033;28;20180;-47
2023/01/25 03:59:33;;;;;;;4.30;3.90;;;15.00;56.80;15.90;102689.00;;;;5031822;28;20241;-48
2023/01/25 04:01:59;;;;;;;4.20;3.80;;;15.00;56.80;15.90;102688.00;;;;5031773;28;20164;-48
2023/01/25 04:04:25;;;;;;;4.20;3.90;;;15.00;56.80;15.90;102681.00;;;;5032166;28;20644;-48
2023/01/25 04:06:51;;;;;;;5.23;3.90;;;15.00;56.80;15.80;102684.00;;;;5031545;28;20237;-48
2023/01/25 04:09:16;;;;;;;4.57;4.17;;;15.00;56.70;15.80;102678.00;;;;5031830;28;20187;-47
2023/01/25 04:11:42;;;;;;;4.47;4.07;;;15.00;56.80;15.80;102674.00;;;;5031654;28;20170;-48
2023/01/25 04:14:09;;;;;;;4.20;3.90;;;14.90;56.70;15.80;102662.00;;;;5031735;28;20182;-48
2023/01/25 04:16:35;;;;;;;4.60;4.20;;;14.90;56.70;15.80;102651.00;;;;5030453;28;20199;-47
2023/01/25 04:19:01;;;;;;;4.47;4.07;;;14.90;56.70;15.80;102657.00;;;;5030407;28;20543;-48
2023/01/25 04:21:26;;;;;;;4.93;4.40;;;14.90;56.70;15.80;102641.00;;;;5030969;28;20514;-48
2023/01/25 04:23:52;;;;;;;3.90;3.60;;;14.90;56.70;15.80;102651.00;;;;5031278;28;20221;-48
2023/01/25 04:26:18;;;;;;;5.33;4.10;;;14.90;56.70;15.70;102649.00;;;;5031636;28;20593;-48
2023/01/25 04:28:43;;;;;;;8.53;4.40;;;14.90;56.80;15.70;102635.00;;;;5030155;28;20281;-48
2023/01/25 04:31:10;;;;;;;8.20;4.00;;;14.90;58.20;15.70;102655.00;;;;5024156;28;20199;-48
2023/01/25 04:33:35;;;;;;;6.60;4.10;;;14.80;57.40;15.70;102644.00;;;;5021030;28;20175;-47
2023/01/25 04:36:01;;;;;;;5.13;4.63;;;14.80;56.90;15.70;102642.00;;;;5016166;28;20207;-48
2023/01/25 04:38:27;;;;;;;5.67;5.17;;;14.80;56.70;15.70;102641.00;;;;5011327;28;20226;-47
2023/01/25 04:40:53;;;;;;;5.97;5.47;;;14.80;56.70;15.60;102638.00;;;;5011603;28;20191;-48
2023/01/25 04:43:19;;;;;;;7.23;6.00;;;14.80;56.30;15.60;102635.00;;;;5009525;28;20548;-48
2023/01/25 04:45:45;;;;;;;7.23;6.53;;;14.70;56.10;15.60;102638.00;;;;5011777;28;20175;-48
2023/01/25 04:48:11;;;;;;;7.80;7.00;;;14.70;55.60;15.60;102629.00;;;;5012107;28;20218;-48
2023/01/25 04:50:38;;;;;;;8.10;7.30;;;14.60;55.10;15.50;102629.00;;;;5011520;28;20195;-48
2023/01/25 04:53:04;;;;;;;8.67;7.87;;;14.60;54.70;15.50;102632.00;;;;5011670;28;20254;-47
2023/01/25 04:55:29;;;;;;;8.60;7.80;;;14.60;54.40;15.50;102631.00;;;;4999224;28;20259;-48
2023/01/25 04:57:55;;;;;;;8.33;7.57;;;14.50;54.10;15.50;102627.00;;;;5016597;28;20230;-48
2023/01/25 05:00:21;;;;;;;8.67;7.87;;;14.50;54.30;15.40;102628.00;;;;5011471;28;20297;-47
2023/01/25 05:02:47;;;;;;;8.30;7.57;;;14.50;54.00;15.40;102621.00;;;;5011527;28;20230;-48
2023/01/25 05:05:13;;;;;;;8.30;7.60;;;14.50;53.80;15.40;102613.00;;;;5013592;28;20168;-48
2023/01/25 05:07:39;;;;;;;8.83;8.03;;;14.50;53.50;15.40;102613.00;;;;5014837;28;20175;-48
2023/01/25 05:10:05;;;;;;;8.43;7.70;;;14.40;53.30;15.30;102609.00;;;;5011537;28;20261;-48
2023/01/25 05:12:31;;;;;;;8.67;7.87;;;14.40;53.30;15.30;102612.00;;;;5011255;28;20184;-48
2023/01/25 05:14:57;;;;;;;8.93;8.13;;;14.40;53.20;15.30;102611.00;;;;5011596;28;20273;-48
2023/01/25 05:17:23;;;;;;;8.97;8.10;;;14.30;52.80;15.30;102611.00;;;;5010589;28;20180;-48
2023/01/25 05:19:48;;;;;;;9.40;8.50;;;14.30;52.80;15.30;102602.00;;;;5020290;28;20311;-48
2023/01/25 05:22:16;;;;;;;8.37;7.57;;;14.30;52.60;15.20;102581.00;;;;5009885;28;20153;-48
2023/01/25 05:24:41;;;;;;;8.30;7.60;;;14.30;52.80;15.20;102602.00;;;;5009819;28;20194;-48
2023/01/25 05:27:08;;;;;;;8.30;7.50;;;14.30;53.00;15.20;102599.00;;;;5011164;28;20172;-48
2023/01/25 05:29:39;;;;;;;8.37;7.63;;;14.30;53.10;15.20;102603.00;;;;5011242;28;20187;-48
2023/01/25 05:32:07;;;;;;;8.20;7.40;;;14.30;53.20;15.20;102600.00;;;;5020625;28;20167;-48
2023/01/25 05:34:33;;;;;;;8.73;7.70;;;14.30;53.30;15.20;102597.00;;;;5019187;28;20660;-48
2023/01/25 05:36:59;;;;;;;8.57;7.70;;;14.30;53.20;15.20;102598.00;;;;5019590;28;20190;-48
2023/01/25 05:39:25;;;;;;;9.83;8.83;;;14.20;53.00;15.10;102604.00;;;;5021341;28;20214;-47
2023/01/25 05:41:50;;;;;;;10.30;9.40;;;14.20;52.70;15.10;102605.00;;;;5019250;28;20164;-48
2023/01/25 05:44:16;;;;;;;9.93;9.03;;;14.10;52.50;15.10;102596.00;;;;5011986;28;20198;-49
2023/01/25 05:46:42;;;;;;;10.87;9.90;;;14.10;52.50;15.00;102609.00;;;;5010963;28;20172;-48
2023/01/25 05:49:08;;;;;;;10.20;9.30;;;14.00;51.50;15.00;102602.00;;;;4995385;28;20274;-48
2023/01/25 05:51:34;;;;;;;10.30;9.23;;;13.90;52.30;15.00;102596.00;;;;5004243;28;20258;-48
2023/01/25 05:54:01;;;;;;;10.73;9.63;;;13.90;52.40;14.90;102604.00;;;;5018827;28;20259;-48
2023/01/25 05:56:26;;;;;;;11.50;10.20;;;13.90;52.40;14.90;102602.00;;;;5014601;28;20199;-48
2023/01/25 05:58:56;;;;;;;11.80;10.63;;;13.90;52.30;14.90;102600.00;;;;5010374;28;20190;-48
2023/01/25 06:01:22;;;;;;;11.00;9.90;;;13.80;51.90;14.80;102605.00;;;;5010425;28;20179;-48
2023/01/25 06:03:48;;;;;;;13.73;9.80;;;13.80;52.10;14.90;102611.00;;;;5009983;28;20222;-48
2023/01/25 06:06:13;;;;;;;15.60;8.83;;;13.90;52.50;14.90;102605.00;;;;5013877;28;20183;-47
2023/01/25 06:08:39;;;;;;;15.13;9.00;;;13.90;52.70;14.90;102600.00;;;;5029753;28;20249;-47
2023/01/25 06:11:07;;;;;;;13.67;8.80;;;13.90;52.70;14.90;102598.00;;;;5029908;28;20643;-48
2023/01/25 06:13:33;;;;;;;10.97;8.47;;;14.00;52.80;14.90;102600.00;;;;5037025;28;20238;-49
2023/01/25 06:15:58;;;;;;;10.70;8.47;;;14.00;52.90;14.90;102602.00;;;;5046306;28;20264;-48
2023/01/25 06:18:24;;;;;;;10.03;7.97;;;14.00;53.00;14.90;102593.00;;;;5031895;28;20171;-47
2023/01/25 06:20:50;;;;;;;8.30;7.17;;;14.10;53.20;15.00;102589.00;;;;5029152;28;20851;-48
2023/01/25 06:23:16;;;;;;;9.40;7.43;;;14.10;53.20;15.00;102587.00;;;;5028104;28;20173;-47
2023/01/25 06:25:42;;;;;;;9.73;7.40;;;14.20;53.20;15.10;102588.00;;;;5029297;28;20181;-47
2023/01/25 06:28:07;;;;;;;7.57;6.77;;;14.30;53.30;15.10;102589.00;;;;5029830;28;20167;-48
2023/01/25 06:30:33;;;;;;;8.13;6.90;;;14.40;53.50;15.20;102588.00;;;;5029887;28;20205;-49
2023/01/25 06:32:59;;;;;;;6.73;6.13;;;14.50;53.50;15.20;102576.00;;;;5029227;28;20628;-47
2023/01/25 06:35:25;;;;;;;7.20;6.33;;;14.60;53.60;15.30;102578.00;;;;5028911;28;20294;-47
2023/01/25 06:37:54;;;;;;;6.80;6.10;;;14.60;53.60;15.40;102593.00;;;;5029811;28;20177;-47
2023/01/25 06:40:20;;;;;;;7.73;6.13;;;14.70;53.60;15.50;102589.00;;;;5029015;28;20194;-48
2023/01/25 06:42:46;;;;;;;6.63;6.00;;;14.80;53.60;15.60;102587.00;;;;5029278;28;20163;-47
2023/01/25 06:45:11;;;;;;;6.50;5.90;;;14.90;53.70;15.50;102586.00;;;;5029530;28;20171;-47
2023/01/25 06:47:38;;;;;;;8.20;6.00;;;15.10;53.80;15.80;102586.00;;;;5029307;28;20182;-47
2023/01/25 06:50:05;;;;;;;6.00;5.40;;;15.10;53.70;15.90;102590.00;;;;5029733;28;20282;-48
2023/01/25 06:52:35;;;;;;;6.30;5.70;;;15.20;53.80;16.00;102585.00;;;;5027747;28;20254;-47
2023/01/25 06:55:05;;;;;;;6.10;5.50;;;15.30;53.80;16.10;102592.00;;;;5034638;28;20205;-47
2023/01/25 06:57:31;;;;;;;6.10;5.57;;;15.40;53.90;16.10;102587.00;;;;5029659;28;20380;-47
2023/01/25 06:59:57;;;;;;;5.60;5.10;;;15.40;53.90;16.20;102586.00;;;;5029182;28;20226;-47
2023/01/25 07:02:22;;;;;;;5.83;5.30;;;15.50;54.00;16.20;102585.00;;;;5028219;28;20301;-47
2023/01/25 07:04:48;;;;;;;6.00;5.40;;;15.50;54.00;16.30;102593.00;;;;5027572;28;20240;-48
2023/01/25 07:07:14;;;;;;;5.90;5.30;;;15.60;54.00;16.40;102593.00;;;;5029482;28;20171;-48
2023/01/25 07:09:39;;;;;;;5.90;5.30;;;15.60;54.00;16.40;102595.00;;;;5029155;28;20197;-48
2023/01/25 07:12:06;;;;;;;5.87;5.37;;;15.70;54.10;16.50;102589.00;;;;5028543;28;20177;-47
2023/01/25 07:14:32;;;;;;;6.13;5.47;;;15.70;54.10;16.50;102597.00;;;;5028646;28;20174;-47
2023/01/25 07:16:57;;;;;;;6.00;5.40;;;15.70;54.10;16.50;102599.00;;;;5029560;28;20147;-47
2023/01/25 07:19:23;;;;;;;5.60;5.10;;;15.80;54.20;16.60;102599.00;;;;5029012;28;20187;-47
2023/01/25 07:21:49;;;;;;;6.03;5.43;;;15.80;54.20;16.60;102601.00;;;;5028354;28;20152;-47
2023/01/25 07:24:16;;;;;;;5.90;5.40;;;15.80;54.20;16.60;102595.00;;;;5028932;28;20191;-47
2023/01/25 07:26:42;;;;;;;5.40;4.90;;;15.80;54.20;16.60;102592.00;;;;5028633;28;20271;-47
2023/01/25 07:29:14;;;;;;;5.87;5.27;;;15.80;54.20;16.70;102594.00;;;;5033193;28;20199;-48
2023/01/25 07:31:41;;;;;;;5.53;5.03;;;15.90;54.30;16.70;102591.00;;;;5032326;28;20174;-47
2023/01/25 07:34:09;;;;;;;5.87;5.33;;;15.90;54.30;16.70;102589.00;;;;5033285;28;20202;-48
2023/01/25 07:36:35;;;;;;;6.93;5.03;;;15.90;54.40;16.70;102592.00;;;;5015973;28;20222;-47
2023/01/25 07:39:00;;;;;;;5.77;5.27;;;15.90;54.30;16.70;102593.00;;;;5034519;28;20262;-47
2023/01/25 07:41:26;;;;;;;5.30;4.90;;;15.90;54.40;16.80;102590.00;;;;5035288;28;20205;-47
2023/01/25 07:43:52;;;;;;;5.53;5.03;;;15.90;54.40;16.70;102581.00;;;;5033934;28;20195;-48
2023/01/25 07:46:18;;;;;;;5.80;5.30;;;15.90;54.40;16.80;102587.00;;;;5016482;28;20183;-48
2023/01/25 07:48:48;;;;;;;5.27;4.87;;;15.90;54.40;16.80;102586.00;;;;5032796;28;20191;-48
2023/01/25 07:51:22;;;;;;;5.67;5.07;;;16.00;54.50;16.80;102589.00;;;;5032041;28;20171;-48
2023/01/25 07:53:57;;;;;;;5.40;4.90;;;16.00;54.50;16.80;102586.00;;;;5032605;28;20577;-47
2023/01/25 07:56:25;;;;;;;5.70;5.20;;;16.00;55.10;16.80;102584.00;;;;5032378;28;20233;-48
2023/01/25 07:58:55;;;;;;;5.60;5.10;;;16.00;54.50;16.80;102576.00;;;;5032306;28;20730;-47
2023/01/25 08:01:23;;;;;;;5.70;5.20;;;16.00;54.50;16.80;102571.00;;;;5031764;28;20159;-47
2023/01/25 08:03:49;;;;;;;5.90;5.40;;;16.00;54.50;16.80;102580.00;;;;5032974;28;20186;-48
2023/01/25 08:06:15;;;;;;;5.77;5.27;;;16.00;54.50;16.60;102566.00;;;;5031078;28;20178;-48
2023/01/25 08:08:46;;;;;;;6.00;5.50;;;16.00;54.50;16.90;102562.00;;;;5030425;28;20202;-47
2023/01/25 08:11:19;;;;;;;5.37;4.90;;;16.00;54.50;16.90;102577.00;;;;5030478;28;20195;-47
2023/01/25 08:13:45;;;;;;;4.97;4.57;;;16.10;54.60;16.90;102576.00;;;;5031644;28;20241;-48
2023/01/25 08:16:18;;;;;;;5.60;5.10;;;16.10;54.60;16.90;102578.00;;;;5031516;28;20217;-46
2023/01/25 08:18:48;;;;;;;5.53;5.13;;;16.10;54.60;16.90;102585.00;;;;5030849;28;20254;-47
2023/01/25 08:21:14;;;;;;;5.13;4.73;;;16.10;54.60;16.90;102582.00;;;;5030828;28;20660;-47
2023/01/25 08:23:39;;;;;;;5.50;5.00;;;16.10;54.60;16.90;102587.00;;;;5034751;28;20174;-48
2023/01/25 08:26:07;;;;;;;5.60;5.10;;;16.10;54.70;16.90;102577.00;;;;5032503;28;20174;-47
2023/01/25 08:28:33;;;;;;;5.87;5.37;;;16.10;54.70;16.90;102574.00;;;;5031390;28;20175;-48
2023/01/25 08:31:13;;;;;;;5.40;5.00;;;16.10;54.60;16.90;102589.00;;;;5032488;28;20615;-47
2023/01/25 08:33:39;;;;;;;5.73;5.17;;;16.10;54.60;16.90;102578.00;;;;5031722;28;20163;-47
2023/01/25 08:36:07;;;;;;;6.03;5.43;;;16.10;54.70;16.90;102574.00;;;;5033962;28;20666;-47
2023/01/25 08:38:33;;;;;;;5.30;4.90;;;16.20;54.80;16.90;102567.00;;;;5029688;28;20175;-47
2023/01/25 08:41:06;;;;;;;5.23;4.83;;;16.10;54.70;16.90;102566.00;;;;5031851;28;20221;-47
2023/01/25 08:43:32;;;;;;;5.10;4.70;;;16.10;54.70;16.90;102562.00;;;;5034837;28;20175;-47
2023/01/25 08:45:58;;;;;;;4.90;4.50;;;16.20;54.80;17.00;102571.00;;;;5032792;28;20231;-47
2023/01/25 08:48:24;;;;;;;5.40;4.93;;;16.20;54.80;16.90;102567.00;;;;5020040;28;20184;-47
2023/01/25 08:50:49;;;;;;;5.20;4.80;;;16.20;54.80;17.00;102570.00;;;;5013441;28;20187;-47
2023/01/25 08:53:15;;;;;;;5.10;4.70;;;16.20;54.80;17.00;102567.00;;;;5021974;28;20176;-47
2023/01/25 08:55:41;;;;;;;9.70;5.60;;;16.20;54.80;17.00;102554.00;;;;5019391;28;20574;-47
2023/01/25 08:58:12;;;;;;;10.17;5.27;;;16.20;54.90;17.00;102560.00;;;;5020450;28;20183;-48
2023/01/25 09:00:39;;;;;;;5.40;5.00;;;16.20;54.90;17.00;102558.00;;;;5021484;28;20607;-47
2023/01/25 09:03:05;;;;;;;5.83;5.00;;;16.20;55.00;17.00;102556.00;;;;5030776;28;20179;-47
2023/01/25 09:05:33;;;;;;;7.30;4.90;;;16.20;55.10;17.00;102557.00;;;;5031425;28;20645;-46
2023/01/25 09:08:00;;;;;;;5.93;5.07;;;16.20;55.30;17.00;102547.00;;;;5029980;28;20583;-47
2023/01/25 09:10:26;;;;;;;7.47;4.97;;;16.20;55.30;17.00;102559.00;;;;5030747;28;20198;-47
2023/01/25 09:12:51;;;;;;;5.83;5.33;;;16.20;55.30;17.00;102556.00;;;;5030599;28;20258;-47
2023/01/25 09:15:17;;;;;;;6.20;5.13;;;16.30;55.40;17.10;102549.00;;;;5023704;28;20615;-47
2023/01/25 09:17:43;;;;;;;6.57;5.47;;;16.30;55.40;17.10;102560.00;;;;5029891;28;20172;-47
2023/01/25 09:20:09;;;;;;;6.20;5.30;;;16.30;55.40;17.10;102548.00;;;;5030239;28;20214;-48
2023/01/25 09:22:35;;;;;;;7.27;5.30;;;16.40;55.40;17.20;102556.00;;;;5030406;28;20206;-47
2023/01/25 09:25:01;;;;;;;5.83;5.23;;;16.40;55.30;17.30;102490.00;;;;5029927;28;20182;-46
2023/01/25 09:27:28;;;;;;;5.63;5.13;;;16.50;55.30;17.30;102550.00;;;;5032400;28;20188;-46
2023/01/25 09:29:53;;;;;;;5.60;5.10;;;16.60;55.30;17.40;102538.00;;;;5027082;28;20264;-47
2023/01/25 09:32:19;;;;;;;6.37;5.17;;;16.60;55.30;17.50;102540.00;;;;5009591;28;20689;-47
2023/01/25 09:34:45;;;;;;;5.90;5.30;;;16.80;55.30;17.20;102544.00;;;;5010782;28;20204;-47
2023/01/25 09:37:11;;;;;;;6.03;5.43;;;16.90;55.20;17.60;102531.00;;;;5010658;28;20207;-46
2023/01/25 09:39:37;;;;;;;5.53;5.00;;;16.90;55.20;17.70;102536.00;;;;4992011;28;20608;-46
2023/01/25 09:42:19;;;;;;;5.67;5.13;;;17.00;55.10;17.80;102530.00;;;;5008876;28;20540;-46
2023/01/25 09:45:09;;;;;;;6.27;5.50;;;17.00;55.10;17.80;102523.00;;;;5009244;28;20737;-48
2023/01/25 09:48:12;;;;;;;6.70;5.13;;;17.10;55.80;17.90;102523.00;;;;5010138;28;20159;-45
2023/01/25 09:50:56;;;;;;;5.60;5.10;;;17.20;55.20;17.90;102507.00;;;;5006602;28;20713;-46
2023/01/25 09:53:33;;;;;;;7.60;5.33;;;17.20;55.20;18.00;102510.00;;;;5030074;28;20159;-47
2023/01/25 09:56:12;;;;;;;6.53;5.10;;;17.20;55.20;18.00;102515.00;;;;5029854;28;20582;-47
2023/01/25 09:58:45;;;;;;;5.70;5.10;;;17.20;55.20;18.00;102515.00;;;;5013815;28;20250;-46
2023/01/25 10:01:18;;;;;;;5.93;5.33;;;17.20;55.30;18.00;102512.00;;;;5028431;28;20256;-47
2023/01/25 10:03:53;;;;;;;8.57;5.37;;;17.20;55.30;18.00;102508.00;;;;5029597;28;20255;-47
2023/01/25 10:06:22;;;;;;;6.47;5.20;;;17.20;55.30;18.00;102509.00;;;;5038858;28;20189;-47
2023/01/25 10:09:00;;;;;;;7.33;5.43;;;17.20;55.20;18.00;102484.00;;;;5037026;28;20289;-48
2023/01/25 10:11:32;;;;;;;6.40;5.17;;;17.20;55.20;18.00;102505.00;;;;5033976;28;20248;-48
2023/01/25 10:13:58;;;;;;;6.13;5.53;;;17.20;55.20;18.00;102501.00;;;;5028963;28;20161;-47
2023/01/25 10:16:56;;;;;;;6.03;5.20;;;17.20;55.10;18.00;102499.00;;;;5038588;28;20232;-47
2023/01/25 10:19:43;;;;;;;6.73;5.43;;;17.20;55.10;18.00;102497.00;;;;5043261;28;20209;-48
2023/01/25 10:22:19;;;;;;;5.80;5.30;;;17.20;55.20;17.90;102491.00;;;;5019713;28;20274;-47
2023/01/25 10:25:27;;;;;;;5.93;5.43;;;17.10;55.20;17.90;102491.00;;;;4992422;28;20266;-47
2023/01/25 10:28:15;;;;;;;5.77;5.17;;;17.20;55.30;17.90;102491.00;;;;4995689;28;20213;-47
2023/01/25 10:30:57;;;;;;;5.50;5.07;;;17.10;55.30;17.90;102489.00;;;;5027692;28;20198;-47
2023/01/25 10:33:22;;;;;;;6.00;5.50;;;17.10;55.30;17.90;102481.00;;;;5027034;28;20540;-46
2023/01/25 10:35:48;;;;;;;6.07;5.47;;;17.10;55.30;17.90;102477.00;;;;5028896;28;20229;-47
2023/01/25 10:38:17;;;;;;;6.10;5.60;;;17.10;55.30;17.80;102474.00;;;;5027694;28;20173;-47
2023/01/25 10:40:48;;;;;;;6.00;5.40;;;17.00;55.30;17.80;102471.00;;;;5026454;28;20205;-46
2023/01/25 10:43:19;;;;;;;5.63;5.13;;;17.00;55.30;17.80;102480.00;;;;5027305;28;20169;-46
2023/01/25 10:45:45;;;;;;;6.10;5.60;;;17.00;55.40;17.80;102462.00;;;;5028970;28;20179;-46
2023/01/25 10:48:21;;;;;;;5.80;5.30;;;17.00;55.30;17.80;102468.00;;;;5037768;28;20189;-47
2023/01/25 10:50:49;;;;;;;5.57;5.00;;;16.90;55.30;17.80;102470.00;;;;5029389;28;20172;-47
2023/01/25 10:53:31;;;;;;;6.53;5.70;;;16.90;55.40;17.70;102463.00;;;;5027790;28;20203;-46